sensor_id;sensor_type;location;lat;lon;timestamp;pressure;altitude;pressure_sealevel;temperature;humidity
66385;BME280;53426;55.872;37.462;2023-10-08T00:01:09;95877.88;;;5.74;86.63
66385;BME280;53426;55.872;37.462;2023-10-08T00:03:48;95884.34;;;5.93;86.24
66385;BME280;53426;55.872;37.462;2023-10-08T00:06:16;95859.66;;;5.73;86.24
66385;BME280;53426;55.872;37.462;2023-10-08T00:08:43;95889.78;;;5.92;86.10
66385;BME280;53426;55.872;37.462;2023-10-08T00:11:09;95850.78;;;5.67;85.69
66385;BME280;53426;55.872;37.462;2023-10-08T00:13:36;95891.22;;;5.94;85.02
66385;BME280;53426;55.872;37.462;2023-10-08T00:16:07;95894.44;;;5.96;84.55
66385;BME280;53426;55.872;37.462;2023-10-08T00:18:37;95883.69;;;5.91;84.26
66385;BME280;53426;55.872;37.462;2023-10-08T00:21:04;95896.72;;;5.99;83.75
66385;BME280;53426;55.872;37.462;2023-10-08T00:23:37;95857.69;;;5.75;84.63
66385;BME280;53426;55.872;37.462;2023-10-08T00:26:08;95880.47;;;5.89;84.52
66385;BME280;53426;55.872;37.462;2023-10-08T00:28:35;95883.28;;;5.87;84.50
66385;BME280;53426;55.872;37.462;2023-10-08T00:31:02;95868.19;;;5.75;83.49
66385;BME280;53426;55.872;37.462;2023-10-08T00:34:02;95884.69;;;5.90;84.47
66385;BME280;53426;55.872;37.462;2023-10-08T00:36:31;95873.25;;;5.76;83.64
66385;BME280;53426;55.872;37.462;2023-10-08T00:38:57;95886.88;;;5.86;82.71
66385;BME280;53426;55.872;37.462;2023-10-08T00:41:26;95889.66;;;5.85;82.94
66385;BME280;53426;55.872;37.462;2023-10-08T00:43:58;95854.38;;;5.66;82.75
66385;BME280;53426;55.872;37.462;2023-10-08T00:46:31;95843.19;;;5.58;82.43
66385;BME280;53426;55.872;37.462;2023-10-08T00:49:25;95886.44;;;5.83;82.60
66385;BME280;53426;55.872;37.462;2023-10-08T00:51:55;95863.94;;;5.74;80.93
66385;BME280;53426;55.872;37.462;2023-10-08T00:54:35;95890.41;;;5.79;81.73
66385;BME280;53426;55.872;37.462;2023-10-08T00:57:26;95894.91;;;5.85;80.36
66385;BME280;53426;55.872;37.462;2023-10-08T00:59:54;95843.75;;;5.53;79.97
66385;BME280;53426;55.872;37.462;2023-10-08T01:02:23;95866.38;;;5.75;79.57
66385;BME280;53426;55.872;37.462;2023-10-08T01:04:54;95875.41;;;5.73;79.93
66385;BME280;53426;55.872;37.462;2023-10-08T01:07:21;95885.16;;;5.79;80.33
66385;BME280;53426;55.872;37.462;2023-10-08T01:09:59;95878.94;;;5.80;81.27
66385;BME280;53426;55.872;37.462;2023-10-08T01:12:29;95884.31;;;5.72;82.31
66385;BME280;53426;55.872;37.462;2023-10-08T01:15:01;95883.94;;;5.75;81.49
66385;BME280;53426;55.872;37.462;2023-10-08T01:17:42;95874.56;;;5.66;80.12
66385;BME280;53426;55.872;37.462;2023-10-08T01:20:28;95909.94;;;5.70;80.94
66385;BME280;53426;55.872;37.462;2023-10-08T01:23:27;95891.94;;;5.67;81.50
66385;BME280;53426;55.872;37.462;2023-10-08T01:25:54;95896.31;;;5.60;81.57
66385;BME280;53426;55.872;37.462;2023-10-08T01:28:49;95883.03;;;5.46;82.43
66385;BME280;53426;55.872;37.462;2023-10-08T01:31:15;95871.59;;;5.33;83.32
66385;BME280;53426;55.872;37.462;2023-10-08T01:33:43;95859.53;;;5.17;82.61
66385;BME280;53426;55.872;37.462;2023-10-08T01:36:27;95867.88;;;5.06;82.04
66385;BME280;53426;55.872;37.462;2023-10-08T01:38:55;95883.63;;;5.06;81.98
66385;BME280;53426;55.872;37.462;2023-10-08T01:41:27;95876.75;;;5.05;81.58
66385;BME280;53426;55.872;37.462;2023-10-08T01:43:59;95865.34;;;4.98;82.14
66385;BME280;53426;55.872;37.462;2023-10-08T01:46:25;95890.66;;;5.05;81.26
66385;BME280;53426;55.872;37.462;2023-10-08T01:48:53;95889.47;;;5.08;81.87
66385;BME280;53426;55.872;37.462;2023-10-08T01:51:26;95877.16;;;5.09;81.51
66385;BME280;53426;55.872;37.462;2023-10-08T01:54:03;95893.06;;;5.22;81.75
66385;BME280;53426;55.872;37.462;2023-10-08T01:56:39;95886.63;;;5.24;81.68
66385;BME280;53426;55.872;37.462;2023-10-08T01:59:10;95880.88;;;5.14;80.80
66385;BME280;53426;55.872;37.462;2023-10-08T02:01:40;95900.00;;;5.29;80.88
66385;BME280;53426;55.872;37.462;2023-10-08T02:04:07;95910.31;;;5.31;81.41
66385;BME280;53426;55.872;37.462;2023-10-08T02:06:34;95892.34;;;5.28;81.49
66385;BME280;53426;55.872;37.462;2023-10-08T02:09:00;95863.00;;;5.03;82.02
66385;BME280;53426;55.872;37.462;2023-10-08T02:11:42;95898.75;;;5.25;81.92
66385;BME280;53426;55.872;37.462;2023-10-08T02:14:09;95899.31;;;5.21;82.49
66385;BME280;53426;55.872;37.462;2023-10-08T02:16:36;95893.69;;;5.24;82.71
66385;BME280;53426;55.872;37.462;2023-10-08T02:19:03;95904.94;;;5.18;83.07
66385;BME280;53426;55.872;37.462;2023-10-08T02:21:34;95881.59;;;5.08;82.91
66385;BME280;53426;55.872;37.462;2023-10-08T02:24:02;95894.53;;;5.10;83.81
66385;BME280;53426;55.872;37.462;2023-10-08T02:26:28;95878.28;;;4.99;82.98
66385;BME280;53426;55.872;37.462;2023-10-08T02:28:54;95853.91;;;4.84;83.21
66385;BME280;53426;55.872;37.462;2023-10-08T02:31:20;95873.69;;;4.87;83.65
66385;BME280;53426;55.872;37.462;2023-10-08T02:33:51;95855.44;;;4.79;83.00
66385;BME280;53426;55.872;37.462;2023-10-08T02:36:45;95886.50;;;5.11;82.24
66385;BME280;53426;55.872;37.462;2023-10-08T02:42:39;95891.34;;;5.14;81.88
66385;BME280;53426;55.872;37.462;2023-10-08T02:45:15;95860.09;;;4.98;81.35
66385;BME280;53426;55.872;37.462;2023-10-08T02:51:26;95871.16;;;4.93;80.41
66385;BME280;53426;55.872;37.462;2023-10-08T02:53:52;95891.28;;;5.07;80.86
66385;BME280;53426;55.872;37.462;2023-10-08T02:56:22;95855.25;;;4.95;80.01
66385;BME280;53426;55.872;37.462;2023-10-08T02:58:48;95887.41;;;5.18;80.38
66385;BME280;53426;55.872;37.462;2023-10-08T03:01:14;95884.78;;;5.18;79.80
66385;BME280;53426;55.872;37.462;2023-10-08T03:03:41;95871.38;;;5.13;79.98
66385;BME280;53426;55.872;37.462;2023-10-08T03:06:08;95874.63;;;5.15;80.20
66385;BME280;53426;55.872;37.462;2023-10-08T03:08:39;95875.63;;;5.14;80.66
66385;BME280;53426;55.872;37.462;2023-10-08T03:11:09;95867.50;;;5.09;79.90
66385;BME280;53426;55.872;37.462;2023-10-08T03:14:03;95887.31;;;5.12;80.42
66385;BME280;53426;55.872;37.462;2023-10-08T03:16:30;95835.34;;;4.86;79.87
66385;BME280;53426;55.872;37.462;2023-10-08T03:19:01;95855.38;;;5.08;80.05
66385;BME280;53426;55.872;37.462;2023-10-08T03:21:27;95852.88;;;5.00;80.62
66385;BME280;53426;55.872;37.462;2023-10-08T03:24:14;95882.88;;;5.12;80.13
66385;BME280;53426;55.872;37.462;2023-10-08T03:27:01;95885.28;;;5.14;79.90
66385;BME280;53426;55.872;37.462;2023-10-08T03:29:49;95860.75;;;5.00;80.79
66385;BME280;53426;55.872;37.462;2023-10-08T03:32:15;95871.38;;;5.13;79.60
66385;BME280;53426;55.872;37.462;2023-10-08T03:34:49;95851.03;;;5.15;80.57
66385;BME280;53426;55.872;37.462;2023-10-08T03:37:17;95874.00;;;5.13;80.07
66385;BME280;53426;55.872;37.462;2023-10-08T03:40:31;95837.88;;;4.94;79.55
66385;BME280;53426;55.872;37.462;2023-10-08T03:43:12;95851.91;;;5.01;80.00
66385;BME280;53426;55.872;37.462;2023-10-08T03:45:49;95856.13;;;5.02;79.60
66385;BME280;53426;55.872;37.462;2023-10-08T03:48:25;95832.94;;;4.84;79.91
66385;BME280;53426;55.872;37.462;2023-10-08T03:50:52;95822.00;;;4.81;80.27
66385;BME280;53426;55.872;37.462;2023-10-08T03:53:58;95876.00;;;5.11;79.12
66385;BME280;53426;55.872;37.462;2023-10-08T03:56:27;95881.53;;;5.01;80.08
66385;BME280;53426;55.872;37.462;2023-10-08T03:59:00;95867.88;;;5.06;80.13
66385;BME280;53426;55.872;37.462;2023-10-08T04:01:57;95868.13;;;5.11;80.05
66385;BME280;53426;55.872;37.462;2023-10-08T04:04:27;95871.13;;;5.08;79.75
66385;BME280;53426;55.872;37.462;2023-10-08T04:07:19;95871.22;;;5.00;80.45
66385;BME280;53426;55.872;37.462;2023-10-08T04:10:05;95882.78;;;5.05;79.50
66385;BME280;53426;55.872;37.462;2023-10-08T04:12:41;95876.31;;;5.01;79.81
66385;BME280;53426;55.872;37.462;2023-10-08T04:15:12;95878.13;;;5.01;81.05
66385;BME280;53426;55.872;37.462;2023-10-08T04:17:42;95890.19;;;5.02;81.56
66385;BME280;53426;55.872;37.462;2023-10-08T04:20:15;95882.38;;;4.87;81.89
66385;BME280;53426;55.872;37.462;2023-10-08T04:23:08;95889.63;;;4.85;83.91
66385;BME280;53426;55.872;37.462;2023-10-08T04:26:05;95903.97;;;4.75;84.28
66385;BME280;53426;55.872;37.462;2023-10-08T04:40:39;95875.78;;;4.47;85.22
66385;BME280;53426;55.872;37.462;2023-10-08T04:43:20;95867.56;;;4.50;85.50
66385;BME280;53426;55.872;37.462;2023-10-08T04:45:54;95877.66;;;4.53;84.99
66385;BME280;53426;55.872;37.462;2023-10-08T04:48:23;95863.44;;;4.41;85.09
66385;BME280;53426;55.872;37.462;2023-10-08T04:50:52;95897.47;;;4.71;84.91
66385;BME280;53426;55.872;37.462;2023-10-08T04:53:45;95899.47;;;4.69;83.77
66385;BME280;53426;55.872;37.462;2023-10-08T04:56:14;95869.75;;;4.61;84.32
66385;BME280;53426;55.872;37.462;2023-10-08T04:58:47;95895.09;;;4.76;83.84
66385;BME280;53426;55.872;37.462;2023-10-08T05:01:14;95829.53;;;4.54;83.87
66385;BME280;53426;55.872;37.462;2023-10-08T05:07:11;95843.63;;;4.53;83.88
66385;BME280;53426;55.872;37.462;2023-10-08T05:09:48;95835.88;;;4.45;83.01
66385;BME280;53426;55.872;37.462;2023-10-08T05:13:05;95895.09;;;4.76;83.65
66385;BME280;53426;55.872;37.462;2023-10-08T05:27:04;95901.19;;;4.91;82.53
66385;BME280;53426;55.872;37.462;2023-10-08T05:29:52;95894.13;;;4.77;82.21
66385;BME280;53426;55.872;37.462;2023-10-08T05:32:37;95884.06;;;4.80;81.72
66385;BME280;53426;55.872;37.462;2023-10-08T05:35:09;95879.84;;;4.79;81.10
66385;BME280;53426;55.872;37.462;2023-10-08T05:37:54;95894.03;;;4.85;80.58
66385;BME280;53426;55.872;37.462;2023-10-08T05:40:44;95904.78;;;4.90;81.43
66385;BME280;53426;55.872;37.462;2023-10-08T05:43:49;95900.16;;;4.92;80.68
66385;BME280;53426;55.872;37.462;2023-10-08T05:46:23;95901.69;;;4.86;79.82
66385;BME280;53426;55.872;37.462;2023-10-08T05:49:14;95900.88;;;4.86;80.56
66385;BME280;53426;55.872;37.462;2023-10-08T05:51:41;95904.06;;;4.96;79.38
66385;BME280;53426;55.872;37.462;2023-10-08T05:54:52;95905.75;;;5.03;78.87
66385;BME280;53426;55.872;37.462;2023-10-08T05:57:41;95907.75;;;5.01;77.97
66385;BME280;53426;55.872;37.462;2023-10-08T06:00:13;95903.69;;;4.99;77.25
66385;BME280;53426;55.872;37.462;2023-10-08T06:02:42;95903.59;;;4.92;76.43
66385;BME280;53426;55.872;37.462;2023-10-08T06:05:11;95895.13;;;4.90;77.13
66385;BME280;53426;55.872;37.462;2023-10-08T06:08:09;95895.03;;;4.84;77.26
66385;BME280;53426;55.872;37.462;2023-10-08T06:10:41;95911.47;;;5.07;76.53
66385;BME280;53426;55.872;37.462;2023-10-08T06:13:14;95905.75;;;5.03;76.50
66385;BME280;53426;55.872;37.462;2023-10-08T06:16:09;95920.75;;;5.10;75.52
66385;BME280;53426;55.872;37.462;2023-10-08T06:18:45;95904.69;;;5.13;74.98
66385;BME280;53426;55.872;37.462;2023-10-08T06:21:11;95924.38;;;5.23;75.05
66385;BME280;53426;55.872;37.462;2023-10-08T06:23:39;95906.34;;;5.20;74.53
66385;BME280;53426;55.872;37.462;2023-10-08T06:26:07;95914.75;;;5.30;74.29
66385;BME280;53426;55.872;37.462;2023-10-08T06:28:42;95924.31;;;5.38;73.69
66385;BME280;53426;55.872;37.462;2023-10-08T06:31:09;95914.00;;;5.36;74.18
66385;BME280;53426;55.872;37.462;2023-10-08T06:34:09;95893.97;;;5.14;74.04
66385;BME280;53426;55.872;37.462;2023-10-08T06:43:48;95919.78;;;5.46;73.51
66385;BME280;53426;55.872;37.462;2023-10-08T06:46:40;95928.47;;;5.47;73.85
66385;BME280;53426;55.872;37.462;2023-10-08T06:49:09;95915.25;;;5.40;74.49
66385;BME280;53426;55.872;37.462;2023-10-08T06:51:44;95934.94;;;5.51;73.65
66385;BME280;53426;55.872;37.462;2023-10-08T06:54:10;95940.03;;;5.53;73.28
66385;BME280;53426;55.872;37.462;2023-10-08T06:56:39;95878.88;;;5.16;73.54
66385;BME280;53426;55.872;37.462;2023-10-08T06:59:13;95954.38;;;5.57;73.69
66385;BME280;53426;55.872;37.462;2023-10-08T07:01:39;95946.72;;;5.55;73.18
66385;BME280;53426;55.872;37.462;2023-10-08T07:04:06;95893.16;;;5.28;72.91
66385;BME280;53426;55.872;37.462;2023-10-08T07:06:41;95925.50;;;5.35;74.10
66385;BME280;53426;55.872;37.462;2023-10-08T07:09:10;95907.34;;;5.19;73.44
66385;BME280;53426;55.872;37.462;2023-10-08T07:12:17;95936.16;;;5.48;73.80
66385;BME280;53426;55.872;37.462;2023-10-08T07:19:15;95945.66;;;5.35;75.16
66385;BME280;53426;55.872;37.462;2023-10-08T07:22:15;95955.44;;;5.41;74.34
66385;BME280;53426;55.872;37.462;2023-10-08T07:25:10;95923.19;;;5.11;74.11
66385;BME280;53426;55.872;37.462;2023-10-08T07:27:37;95884.34;;;5.00;73.38
66385;BME280;53426;55.872;37.462;2023-10-08T07:36:07;95927.94;;;5.37;72.69
66385;BME280;53426;55.872;37.462;2023-10-08T07:45:18;95941.91;;;5.23;73.71
66385;BME280;53426;55.872;37.462;2023-10-08T07:47:44;95937.69;;;5.07;73.78
66385;BME280;53426;55.872;37.462;2023-10-08T08:00:17;95932.97;;;4.88;75.52
66385;BME280;53426;55.872;37.462;2023-10-08T08:02:56;95966.50;;;5.22;76.69
66385;BME280;53426;55.872;37.462;2023-10-08T08:05:25;95977.06;;;5.14;74.35
66385;BME280;53426;55.872;37.462;2023-10-08T08:08:16;95988.38;;;5.43;74.82
66385;BME280;53426;55.872;37.462;2023-10-08T08:17:31;95952.09;;;5.68;70.20
66385;BME280;53426;55.872;37.462;2023-10-08T08:19:59;95998.00;;;6.08;70.81
66385;BME280;53426;55.872;37.462;2023-10-08T08:25:49;96001.94;;;6.19;74.80
66385;BME280;53426;55.872;37.462;2023-10-08T08:28:34;95970.84;;;5.65;71.71
66385;BME280;53426;55.872;37.462;2023-10-08T08:31:04;95978.13;;;5.99;70.40
66385;BME280;53426;55.872;37.462;2023-10-08T08:46:05;96036.94;;;6.05;69.93
66385;BME280;53426;55.872;37.462;2023-10-08T08:58:20;96011.56;;;6.12;69.74
66385;BME280;53426;55.872;37.462;2023-10-08T09:04:40;96034.75;;;6.08;68.95
66385;BME280;53426;55.872;37.462;2023-10-08T09:07:07;96021.56;;;6.02;69.76
66385;BME280;53426;55.872;37.462;2023-10-08T09:13:47;96009.69;;;5.55;70.14
66385;BME280;53426;55.872;37.462;2023-10-08T09:16:14;96006.34;;;5.61;70.26
66385;BME280;53426;55.872;37.462;2023-10-08T09:23:10;96058.97;;;5.74;70.93
66385;BME280;53426;55.872;37.462;2023-10-08T09:25:48;96026.06;;;5.57;70.17
66385;BME280;53426;55.872;37.462;2023-10-08T09:33:56;96036.28;;;5.67;69.31
66385;BME280;53426;55.872;37.462;2023-10-08T09:36:23;95984.63;;;5.53;68.90
66385;BME280;53426;55.872;37.462;2023-10-08T09:39:03;96038.16;;;5.87;68.47
66385;BME280;53426;55.872;37.462;2023-10-08T09:42:44;95989.56;;;5.62;69.44
66385;BME280;53426;55.872;37.462;2023-10-08T09:52:45;96057.00;;;6.48;66.26
66385;BME280;53426;55.872;37.462;2023-10-08T10:12:26;96058.44;;;5.64;67.64
66385;BME280;53426;55.872;37.462;2023-10-08T10:14:55;96072.84;;;5.54;68.57
66385;BME280;53426;55.872;37.462;2023-10-08T10:17:28;96065.00;;;5.39;68.74
66385;BME280;53426;55.872;37.462;2023-10-08T10:20:00;96052.50;;;5.26;69.17
66385;BME280;53426;55.872;37.462;2023-10-08T10:22:34;96070.16;;;5.18;69.50
66385;BME280;53426;55.872;37.462;2023-10-08T10:25:05;96061.53;;;5.09;69.84
66385;BME280;53426;55.872;37.462;2023-10-08T10:30:24;96074.19;;;4.91;71.14
66385;BME280;53426;55.872;37.462;2023-10-08T10:33:00;96069.00;;;4.83;71.94
66385;BME280;53426;55.872;37.462;2023-10-08T10:35:29;96063.53;;;4.70;73.02
66385;BME280;53426;55.872;37.462;2023-10-08T10:37:58;96083.25;;;4.80;73.14
66385;BME280;53426;55.872;37.462;2023-10-08T10:40:29;96098.09;;;4.73;74.12
66385;BME280;53426;55.872;37.462;2023-10-08T10:43:09;96082.59;;;4.63;73.71
66385;BME280;53426;55.872;37.462;2023-10-08T10:45:35;96093.59;;;4.59;74.95
66385;BME280;53426;55.872;37.462;2023-10-08T10:48:20;96091.09;;;4.43;74.87
66385;BME280;53426;55.872;37.462;2023-10-08T10:51:25;96109.72;;;4.48;75.65
66385;BME280;53426;55.872;37.462;2023-10-08T10:54:16;96109.72;;;4.48;75.76
66385;BME280;53426;55.872;37.462;2023-10-08T11:00:11;96092.31;;;4.32;76.63
66385;BME280;53426;55.872;37.462;2023-10-08T11:03:51;96074.28;;;4.37;77.31
66385;BME280;53426;55.872;37.462;2023-10-08T11:06:29;96091.44;;;4.62;76.58
66385;BME280;53426;55.872;37.462;2023-10-08T11:09:31;96057.81;;;4.29;76.63
66385;BME280;53426;55.872;37.462;2023-10-08T11:12:13;96100.28;;;4.61;75.90
66385;BME280;53426;55.872;37.462;2023-10-08T11:22:05;96065.72;;;4.43;76.20
66385;BME280;53426;55.872;37.462;2023-10-08T11:25:19;96103.94;;;4.75;75.61
66385;BME280;53426;55.872;37.462;2023-10-08T11:28:14;96098.97;;;4.80;75.99
66385;BME280;53426;55.872;37.462;2023-10-08T11:31:16;96115.03;;;4.85;76.03
66385;BME280;53426;55.872;37.462;2023-10-08T11:34:04;96099.09;;;4.87;75.18
66385;BME280;53426;55.872;37.462;2023-10-08T11:36:40;96038.84;;;4.27;75.95
66385;BME280;53426;55.872;37.462;2023-10-08T11:39:48;96096.22;;;4.59;75.78
66385;BME280;53426;55.872;37.462;2023-10-08T12:05:46;96046.88;;;4.02;77.40
66385;BME280;53426;55.872;37.462;2023-10-08T12:08:42;96070.88;;;4.06;78.05
66385;BME280;53426;55.872;37.462;2023-10-08T12:20:33;96111.09;;;4.13;79.25
66385;BME280;53426;55.872;37.462;2023-10-08T12:33:35;96068.66;;;3.95;79.91
66385;BME280;53426;55.872;37.462;2023-10-08T12:36:03;96107.00;;;4.10;79.50
66385;BME280;53426;55.872;37.462;2023-10-08T12:39:26;96042.72;;;3.54;79.65
66385;BME280;53426;55.872;37.462;2023-10-08T12:41:56;96113.50;;;3.92;79.66
66385;BME280;53426;55.872;37.462;2023-10-08T12:44:32;96089.03;;;3.76;80.32
66385;BME280;53426;55.872;37.462;2023-10-08T12:47:14;96031.31;;;3.47;80.25
66385;BME280;53426;55.872;37.462;2023-10-08T12:49:53;96115.16;;;3.93;80.34
66385;BME280;53426;55.872;37.462;2023-10-08T12:52:23;96089.44;;;3.65;80.32
66385;BME280;53426;55.872;37.462;2023-10-08T12:54:54;96120.78;;;3.73;80.21
66385;BME280;53426;55.872;37.462;2023-10-08T12:57:25;96077.47;;;3.32;81.04
66385;BME280;53426;55.872;37.462;2023-10-08T13:00:07;96078.13;;;3.26;81.42
66385;BME280;53426;55.872;37.462;2023-10-08T13:14:54;96129.72;;;3.48;82.19
66385;BME280;53426;55.872;37.462;2023-10-08T13:18:47;96132.00;;;3.43;82.34
66385;BME280;53426;55.872;37.462;2023-10-08T13:21:52;96095.59;;;3.25;82.87
66385;BME280;53426;55.872;37.462;2023-10-08T13:25:01;96048.97;;;2.90;82.90
66385;BME280;53426;55.872;37.462;2023-10-08T13:27:33;96134.94;;;3.40;83.43
66385;BME280;53426;55.872;37.462;2023-10-08T13:34:10;96072.00;;;2.94;83.03
66385;BME280;53426;55.872;37.462;2023-10-08T13:37:05;96121.59;;;3.27;83.82
66385;BME280;53426;55.872;37.462;2023-10-08T13:39:34;96062.72;;;2.76;83.83
66385;BME280;53426;55.872;37.462;2023-10-08T13:42:25;96117.34;;;3.26;83.96
66385;BME280;53426;55.872;37.462;2023-10-08T13:48:55;96088.47;;;2.95;83.68
66385;BME280;53426;55.872;37.462;2023-10-08T13:51:31;96056.03;;;2.65;83.07
66385;BME280;53426;55.872;37.462;2023-10-08T13:54:01;96109.38;;;2.95;83.23
66385;BME280;53426;55.872;37.462;2023-10-08T13:57:00;96136.00;;;3.15;83.10
66385;BME280;53426;55.872;37.462;2023-10-08T13:59:33;96070.72;;;2.58;83.69
66385;BME280;53426;55.872;37.462;2023-10-08T14:02:14;96049.03;;;2.49;83.69
66385;BME280;53426;55.872;37.462;2023-10-08T14:04:44;96136.31;;;3.12;84.10
66385;BME280;53426;55.872;37.462;2023-10-08T14:07:11;96085.41;;;2.83;84.38
66385;BME280;53426;55.872;37.462;2023-10-08T14:09:38;96126.50;;;3.06;84.16
66385;BME280;53426;55.872;37.462;2023-10-08T14:12:14;96121.66;;;2.94;84.25
66385;BME280;53426;55.872;37.462;2023-10-08T14:14:42;96081.81;;;2.68;84.17
66385;BME280;53426;55.872;37.462;2023-10-08T14:17:23;96067.94;;;2.60;84.92
66385;BME280;53426;55.872;37.462;2023-10-08T14:20:09;96115.91;;;2.91;84.76
66385;BME280;53426;55.872;37.462;2023-10-08T14:26:19;96060.91;;;2.52;84.49
66385;BME280;53426;55.872;37.462;2023-10-08T14:29:11;96127.19;;;3.00;84.73
66385;BME280;53426;55.872;37.462;2023-10-08T14:31:41;96096.66;;;2.76;84.59
66385;BME280;53426;55.872;37.462;2023-10-08T14:34:51;96090.97;;;2.64;84.32
66385;BME280;53426;55.872;37.462;2023-10-08T14:37:20;96134.38;;;2.98;84.36
66385;BME280;53426;55.872;37.462;2023-10-08T14:40:06;96115.09;;;2.90;84.97
66385;BME280;53426;55.872;37.462;2023-10-08T14:42:55;96137.31;;;3.03;84.79
66385;BME280;53426;55.872;37.462;2023-10-08T14:45:37;96065.50;;;2.58;84.57
66385;BME280;53426;55.872;37.462;2023-10-08T14:48:11;96064.50;;;2.51;84.29
66385;BME280;53426;55.872;37.462;2023-10-08T14:50:47;96081.97;;;2.59;84.25
66385;BME280;53426;55.872;37.462;2023-10-08T14:54:23;96144.03;;;2.89;84.34
66385;BME280;53426;55.872;37.462;2023-10-08T14:57:05;96158.88;;;2.88;84.50
66385;BME280;53426;55.872;37.462;2023-10-08T14:59:32;96107.44;;;2.48;84.39
66385;BME280;53426;55.872;37.462;2023-10-08T15:02:00;96164.75;;;2.90;84.90
66385;BME280;53426;55.872;37.462;2023-10-08T15:04:26;96063.72;;;2.34;84.58
66385;BME280;53426;55.872;37.462;2023-10-08T15:06:55;96143.50;;;2.85;84.93
66385;BME280;53426;55.872;37.462;2023-10-08T15:09:23;96163.78;;;2.83;84.36
66385;BME280;53426;55.872;37.462;2023-10-08T15:24:24;96134.88;;;2.44;85.15
66385;BME280;53426;55.872;37.462;2023-10-08T15:26:54;96140.22;;;2.51;85.86
66385;BME280;53426;55.872;37.462;2023-10-08T15:29:23;96130.47;;;2.45;85.13
66385;BME280;53426;55.872;37.462;2023-10-08T15:31:54;96140.25;;;2.43;85.80
66385;BME280;53426;55.872;37.462;2023-10-08T15:34:23;96138.59;;;2.42;85.50
66385;BME280;53426;55.872;37.462;2023-10-08T15:36:53;96175.69;;;2.70;86.08
66385;BME280;53426;55.872;37.462;2023-10-08T15:39:19;96168.00;;;2.68;85.93
66385;BME280;53426;55.872;37.462;2023-10-08T15:41:58;96157.53;;;2.68;85.72
66385;BME280;53426;55.872;37.462;2023-10-08T15:44:30;96137.47;;;2.52;85.90
66385;BME280;53426;55.872;37.462;2023-10-08T15:46:56;96126.22;;;2.44;85.81
66385;BME280;53426;55.872;37.462;2023-10-08T15:52:10;96145.63;;;2.49;85.78
66385;BME280;53426;55.872;37.462;2023-10-08T15:54:38;96105.13;;;2.29;85.62
66385;BME280;53426;55.872;37.462;2023-10-08T15:57:06;96135.19;;;2.49;85.51
66385;BME280;53426;55.872;37.462;2023-10-08T15:59:34;96176.00;;;2.75;84.90
66385;BME280;53426;55.872;37.462;2023-10-08T16:05:17;96168.31;;;2.73;85.57
66385;BME280;53426;55.872;37.462;2023-10-08T16:07:50;96162.28;;;2.57;85.09
66385;BME280;53426;55.872;37.462;2023-10-08T16:10:16;96146.13;;;2.45;85.19
66385;BME280;53426;55.872;37.462;2023-10-08T16:12:44;96168.81;;;2.52;84.71
66385;BME280;53426;55.872;37.462;2023-10-08T16:18:37;96166.31;;;2.27;85.33
66385;BME280;53426;55.872;37.462;2023-10-08T16:21:05;96169.59;;;2.29;85.26
66385;BME280;53426;55.872;37.462;2023-10-08T16:24:42;96106.88;;;1.96;85.83
66385;BME280;53426;55.872;37.462;2023-10-08T16:27:56;96190.34;;;2.55;86.06
66385;BME280;53426;55.872;37.462;2023-10-08T16:30:24;96176.28;;;2.31;85.86
66385;BME280;53426;55.872;37.462;2023-10-08T16:43:31;96170.19;;;2.15;86.13
66385;BME280;53426;55.872;37.462;2023-10-08T16:45:57;96189.47;;;2.22;85.83
66385;BME280;53426;55.872;37.462;2023-10-08T16:48:28;96197.44;;;2.20;86.46
66385;BME280;53426;55.872;37.462;2023-10-08T16:50:57;96174.91;;;2.11;86.60
66385;BME280;53426;55.872;37.462;2023-10-08T16:53:28;96128.34;;;1.74;86.48
66385;BME280;53426;55.872;37.462;2023-10-08T16:55:55;96217.03;;;2.24;86.81
66385;BME280;53426;55.872;37.462;2023-10-08T16:58:30;96144.16;;;1.81;86.63
66385;BME280;53426;55.872;37.462;2023-10-08T17:12:50;96219.97;;;2.29;86.77
66385;BME280;53426;55.872;37.462;2023-10-08T17:15:18;96213.59;;;2.24;87.15
66385;BME280;53426;55.872;37.462;2023-10-08T17:17:45;96206.38;;;2.09;86.60
66385;BME280;53426;55.872;37.462;2023-10-08T17:20:11;96214.75;;;2.29;86.95
66385;BME280;53426;55.872;37.462;2023-10-08T17:22:45;96171.09;;;1.97;87.01
66385;BME280;53426;55.872;37.462;2023-10-08T17:25:12;96182.06;;;2.01;86.97
66385;BME280;53426;55.872;37.462;2023-10-08T17:28:03;96225.88;;;2.31;86.84
66385;BME280;53426;55.872;37.462;2023-10-08T17:30:56;96224.75;;;2.34;86.72
66385;BME280;53426;55.872;37.462;2023-10-08T17:33:42;96225.56;;;2.34;86.64
66385;BME280;53426;55.872;37.462;2023-10-08T17:36:40;96229.63;;;2.37;86.76
66385;BME280;53426;55.872;37.462;2023-10-08T17:42:38;96228.28;;;2.25;86.17
66385;BME280;53426;55.872;37.462;2023-10-08T17:45:10;96200.97;;;2.03;86.64
66385;BME280;53426;55.872;37.462;2023-10-08T17:51:42;96222.53;;;2.13;86.64
66385;BME280;53426;55.872;37.462;2023-10-08T17:54:12;96166.03;;;1.88;86.46
66385;BME280;53426;55.872;37.462;2023-10-08T17:56:41;96246.41;;;2.26;86.75
66385;BME280;53426;55.872;37.462;2023-10-08T17:59:08;96259.94;;;2.22;86.74
66385;BME280;53426;55.872;37.462;2023-10-08T18:01:37;96251.47;;;2.28;86.90
66385;BME280;53426;55.872;37.462;2023-10-08T18:04:32;96249.38;;;2.31;86.99
66385;BME280;53426;55.872;37.462;2023-10-08T18:06:58;96230.50;;;2.03;86.91
66385;BME280;53426;55.872;37.462;2023-10-08T18:09:24;96258.69;;;2.34;86.70
66385;BME280;53426;55.872;37.462;2023-10-08T18:11:51;96220.44;;;2.17;86.95
66385;BME280;53426;55.872;37.462;2023-10-08T18:14:25;96232.06;;;2.22;87.05
66385;BME280;53426;55.872;37.462;2023-10-08T18:16:57;96259.84;;;2.39;86.93
66385;BME280;53426;55.872;37.462;2023-10-08T18:19:51;96261.78;;;2.37;86.70
66385;BME280;53426;55.872;37.462;2023-10-08T18:22:22;96195.53;;;1.88;86.89
66385;BME280;53426;55.872;37.462;2023-10-08T18:24:48;96266.34;;;2.35;86.90
66385;BME280;53426;55.872;37.462;2023-10-08T18:27:15;96267.50;;;2.41;86.84